createdAt,value
2023-01-25T00:00:58.489Z,14.60
2023-01-25T00:03:28.651Z,14.63
2023-01-25T00:06:03.310Z,13.97
2023-01-25T00:08:33.413Z,14.03
2023-01-25T00:11:06.203Z,16.43
2023-01-25T00:13:36.357Z,17.10
2023-01-25T00:16:10.202Z,15.20
2023-01-25T00:18:41.542Z,17.00
2023-01-25T00:21:19.358Z,17.27
2023-01-25T00:23:49.539Z,17.00
2023-01-25T00:26:23.112Z,18.53
2023-01-25T00:28:53.655Z,16.40
2023-01-25T00:31:36.061Z,16.23
2023-01-25T00:34:47.539Z,16.70
2023-01-25T00:37:40.705Z,16.30
2023-01-25T00:40:15.684Z,14.50
2023-01-25T00:42:49.703Z,13.73
2023-01-25T00:45:19.953Z,13.10
2023-01-25T00:47:50.540Z,14.33
2023-01-25T00:50:20.787Z,14.90
2023-01-25T00:52:50.989Z,15.00
2023-01-25T00:55:21.089Z,16.03
2023-01-25T00:57:53.840Z,14.47
2023-01-25T01:00:24.082Z,13.03
2023-01-25T01:02:54.188Z,14.27
2023-01-25T01:05:24.279Z,15.43
2023-01-25T01:07:54.497Z,15.80
2023-01-25T01:10:24.848Z,16.30
2023-01-25T01:12:57.594Z,12.67
2023-01-25T01:15:27.634Z,13.90
2023-01-25T01:17:58.645Z,16.07
2023-01-25T01:20:28.866Z,13.53
2023-01-25T01:22:58.960Z,18.10
2023-01-25T01:25:31.010Z,15.97
2023-01-25T01:28:03.717Z,16.23
2023-01-25T01:30:36.121Z,15.23
2023-01-25T01:33:06.884Z,15.70
2023-01-25T01:35:36.971Z,15.47
2023-01-25T01:38:07.157Z,14.47
2023-01-25T01:40:39.578Z,15.30
2023-01-25T01:43:21.562Z,15.27
2023-01-25T01:46:00.153Z,14.07
2023-01-25T01:48:41.190Z,15.70
2023-01-25T01:51:24.196Z,14.20
2023-01-25T01:54:03.177Z,16.47
2023-01-25T01:56:40.483Z,17.40
2023-01-25T01:59:14.536Z,15.93
2023-01-25T02:01:47.142Z,15.53
2023-01-25T02:04:21.335Z,16.63
2023-01-25T02:06:58.474Z,13.43
2023-01-25T02:09:32.450Z,13.43
2023-01-25T02:12:06.524Z,14.73
2023-01-25T02:14:47.278Z,13.43
2023-01-25T02:17:20.224Z,13.43
2023-01-25T02:19:59.706Z,17.30
2023-01-25T02:22:39.539Z,14.77
2023-01-25T02:25:15.223Z,17.83
2023-01-25T02:27:51.616Z,14.43
2023-01-25T02:30:24.041Z,14.90
2023-01-25T02:32:57.343Z,16.97
2023-01-25T02:35:41.779Z,17.13
2023-01-25T02:38:16.545Z,14.10
2023-01-25T02:40:57.497Z,14.97
2023-01-25T02:43:35.164Z,14.23
2023-01-25T02:46:16.139Z,14.43
2023-01-25T02:48:46.260Z,12.77
2023-01-25T02:51:17.350Z,15.60
2023-01-25T02:53:47.447Z,13.80
2023-01-25T02:56:21.157Z,13.00
2023-01-25T02:58:51.492Z,12.77
2023-01-25T03:01:22.980Z,12.83
2023-01-25T03:03:53.490Z,15.40
2023-01-25T03:06:23.598Z,11.93
2023-01-25T03:08:53.701Z,14.60
2023-01-25T03:11:26.562Z,15.53
2023-01-25T03:13:56.979Z,13.23
2023-01-25T03:16:27.164Z,12.90
2023-01-25T03:18:58.833Z,16.07
2023-01-25T03:21:29.144Z,15.70
2023-01-25T03:24:02.343Z,16.50
2023-01-25T03:26:55.119Z,17.97
2023-01-25T03:29:25.267Z,15.10
2023-01-25T03:31:55.452Z,16.47
2023-01-25T03:34:26.673Z,16.57
2023-01-25T03:36:56.840Z,14.60
2023-01-25T03:39:27.074Z,12.50
2023-01-25T03:41:59.913Z,17.00
2023-01-25T03:44:30.041Z,16.57
2023-01-25T03:47:00.356Z,15.60
2023-01-25T03:49:30.672Z,20.43
2023-01-25T03:52:00.767Z,15.67
2023-01-25T03:54:30.823Z,15.87
2023-01-25T03:57:03.517Z,14.93
2023-01-25T03:59:33.607Z,14.67
2023-01-25T04:02:05.758Z,14.47
2023-01-25T04:04:35.875Z,15.93
2023-01-25T04:07:06.008Z,16.13
2023-01-25T04:09:36.073Z,18.57
2023-01-25T04:12:14.274Z,15.73
2023-01-25T04:14:45.135Z,13.53
2023-01-25T04:17:15.248Z,13.57
2023-01-25T04:19:45.331Z,14.17
2023-01-25T04:22:16.387Z,15.33
2023-01-25T04:24:46.797Z,15.07
2023-01-25T04:27:19.497Z,16.87
2023-01-25T04:29:49.576Z,14.93
2023-01-25T04:32:19.839Z,16.03
2023-01-25T04:34:50.041Z,13.67
2023-01-25T04:37:20.290Z,17.50
2023-01-25T04:39:50.440Z,16.50
2023-01-25T04:42:23.141Z,17.23
2023-01-25T04:44:53.292Z,18.73
2023-01-25T04:47:23.425Z,16.73
2023-01-25T04:49:53.539Z,18.37
2023-01-25T04:52:23.615Z,18.60
2023-01-25T04:54:56.144Z,19.77
2023-01-25T04:57:28.890Z,18.27
2023-01-25T05:00:03.223Z,14.53
2023-01-25T05:02:33.336Z,17.17
2023-01-25T05:05:03.609Z,16.53
2023-01-25T05:07:33.693Z,17.23
2023-01-25T05:10:03.814Z,20.30
2023-01-25T05:12:36.550Z,16.80
2023-01-25T05:15:08.111Z,15.57
2023-01-25T05:17:38.425Z,16.43
2023-01-25T05:20:09.672Z,18.17
2023-01-25T05:22:39.802Z,16.97
2023-01-25T05:25:31.311Z,19.33
2023-01-25T05:28:04.629Z,17.57
2023-01-25T05:30:34.827Z,17.93
2023-01-25T05:33:05.132Z,19.60
2023-01-25T05:35:37.641Z,16.77
2023-01-25T05:38:07.691Z,16.80
2023-01-25T05:40:37.778Z,16.73
2023-01-25T05:43:11.224Z,20.83
2023-01-25T05:45:43.904Z,17.13
2023-01-25T05:48:14.026Z,16.07
2023-01-25T05:50:44.127Z,16.37
2023-01-25T05:53:14.238Z,15.43
2023-01-25T05:55:44.598Z,15.77
2023-01-25T05:58:17.288Z,15.10
2023-01-25T06:00:47.417Z,14.87
2023-01-25T06:03:17.671Z,16.00
2023-01-25T06:05:48.125Z,21.47
2023-01-25T06:08:18.182Z,18.80
2023-01-25T06:10:48.330Z,15.83
2023-01-25T06:13:22.233Z,15.57
2023-01-25T06:15:56.361Z,17.30
2023-01-25T06:18:28.692Z,16.73
2023-01-25T06:21:00.809Z,16.93
2023-01-25T06:23:31.761Z,18.13
2023-01-25T06:26:02.932Z,17.40
2023-01-25T06:28:38.542Z,18.43
2023-01-25T06:31:14.289Z,16.73
2023-01-25T06:33:46.366Z,16.13
2023-01-25T06:36:22.286Z,19.30
2023-01-25T06:38:54.517Z,18.33
2023-01-25T06:41:25.003Z,17.07
2023-01-25T06:43:58.128Z,16.27
2023-01-25T06:46:28.425Z,19.83
2023-01-25T06:48:58.576Z,19.33
2023-01-25T06:51:28.815Z,21.57
2023-01-25T06:53:58.869Z,20.33
2023-01-25T06:56:29.154Z,19.80
2023-01-25T06:59:03.036Z,21.90
2023-01-25T07:01:34.778Z,19.37
2023-01-25T07:04:04.872Z,18.20
2023-01-25T07:06:36.833Z,18.50
2023-01-25T07:09:09.768Z,22.00
2023-01-25T07:11:40.697Z,21.53
2023-01-25T07:14:13.347Z,23.33
2023-01-25T07:16:43.521Z,20.57
2023-01-25T07:19:15.699Z,24.97
2023-01-25T07:21:47.699Z,20.80
2023-01-25T07:24:27.077Z,17.13
2023-01-25T07:26:57.403Z,19.00
2023-01-25T07:29:30.223Z,20.43
2023-01-25T07:32:00.961Z,18.33
2023-01-25T07:34:31.053Z,18.60
2023-01-25T07:37:01.190Z,17.83
2023-01-25T07:39:31.264Z,18.60
2023-01-25T07:42:01.363Z,19.43
2023-01-25T07:44:34.067Z,21.80
2023-01-25T07:47:04.225Z,19.83
2023-01-25T07:49:34.309Z,20.63
2023-01-25T07:52:04.722Z,20.53
2023-01-25T07:54:35.074Z,21.40
2023-01-25T07:57:05.131Z,22.67
2023-01-25T07:59:37.898Z,19.53
2023-01-25T08:02:07.967Z,23.10
2023-01-25T08:04:39.401Z,30.77
2023-01-25T08:07:09.482Z,20.73
2023-01-25T08:09:39.638Z,19.67
2023-01-25T08:12:12.830Z,20.90
2023-01-25T08:14:45.595Z,23.10
2023-01-25T08:17:15.660Z,27.43
2023-01-25T08:19:47.169Z,26.57
2023-01-25T08:22:17.250Z,22.93
2023-01-25T08:24:47.427Z,20.27
2023-01-25T08:27:17.532Z,17.40
2023-01-25T08:29:50.572Z,20.73
2023-01-25T08:32:20.634Z,19.17
2023-01-25T08:34:50.959Z,22.03
2023-01-25T08:37:21.146Z,19.83
2023-01-25T08:39:51.314Z,19.70
2023-01-25T08:42:21.657Z,22.80
2023-01-25T08:44:54.542Z,18.57
2023-01-25T08:47:26.745Z,23.70
2023-01-25T08:49:56.975Z,18.53
2023-01-25T08:52:27.034Z,22.10
2023-01-25T08:54:57.207Z,18.27
2023-01-25T08:57:27.284Z,21.33
2023-01-25T09:00:03.285Z,20.97
2023-01-25T09:02:33.997Z,18.97
2023-01-25T09:05:04.153Z,18.87
2023-01-25T09:07:38.557Z,22.73
2023-01-25T09:10:10.377Z,26.43
2023-01-25T09:12:40.895Z,23.17
2023-01-25T09:15:13.984Z,23.00
2023-01-25T09:17:44.152Z,21.73
2023-01-25T09:20:16.601Z,19.97
2023-01-25T09:22:47.524Z,20.50
2023-01-25T09:25:18.778Z,19.70
2023-01-25T09:27:53.175Z,21.10
2023-01-25T09:30:37.313Z,23.33
2023-01-25T09:33:14.862Z,22.97
2023-01-25T09:35:51.649Z,25.63
2023-01-25T09:38:22.068Z,25.17
2023-01-25T09:41:21.722Z,22.60
2023-01-25T09:44:15.715Z,25.90
2023-01-25T09:46:52.954Z,23.17
2023-01-25T09:49:44.653Z,23.27
2023-01-25T09:52:50.851Z,24.47
2023-01-25T09:55:26.488Z,27.73
2023-01-25T09:58:00.627Z,24.90
2023-01-25T10:00:36.036Z,23.20
2023-01-25T10:03:23.872Z,21.40
2023-01-25T10:05:59.205Z,27.57
2023-01-25T10:08:38.617Z,24.13
2023-01-25T10:11:23.457Z,25.30
2023-01-25T10:13:55.952Z,20.90
2023-01-25T10:16:33.590Z,27.70
2023-01-25T10:19:22.755Z,25.57
2023-01-25T10:22:00.705Z,30.43
2023-01-25T10:25:32.889Z,23.17
2023-01-25T10:28:23.175Z,27.33
2023-01-25T10:31:02.883Z,27.07
2023-01-25T10:33:40.467Z,26.43
2023-01-25T10:36:18.700Z,24.77
2023-01-25T10:38:57.531Z,21.27
2023-01-25T10:41:37.400Z,26.23
2023-01-25T10:44:20.335Z,25.50
2023-01-25T10:46:59.169Z,25.40
2023-01-25T10:49:50.164Z,24.40
2023-01-25T10:52:26.279Z,25.03
2023-01-25T10:55:18.374Z,25.83
2023-01-25T10:57:52.530Z,31.50
2023-01-25T11:00:31.841Z,24.53
2023-01-25T11:03:02.333Z,24.43
2023-01-25T11:05:37.937Z,26.40
2023-01-25T11:08:36.010Z,26.33
2023-01-25T11:11:29.724Z,24.40
2023-01-25T11:13:59.974Z,25.30
2023-01-25T11:16:36.972Z,27.17
2023-01-25T11:19:28.728Z,27.10
2023-01-25T11:22:00.813Z,26.13
2023-01-25T11:24:35.674Z,25.37
2023-01-25T11:27:24.373Z,22.93
2023-01-25T11:30:12.368Z,26.13
2023-01-25T11:32:43.718Z,28.27
2023-01-25T11:35:21.601Z,31.93
2023-01-25T11:38:16.261Z,33.50
2023-01-25T11:41:00.333Z,32.00
2023-01-25T11:44:10.393Z,27.10
2023-01-25T11:46:54.710Z,27.90
2023-01-25T11:49:46.409Z,28.43
2023-01-25T11:52:39.597Z,29.70
2023-01-25T11:55:29.281Z,27.47
2023-01-25T11:58:27.368Z,27.43
2023-01-25T12:01:14.503Z,30.30
2023-01-25T12:04:18.364Z,25.17
2023-01-25T12:07:03.864Z,24.40
2023-01-25T12:10:05.977Z,24.27
2023-01-25T12:12:54.098Z,26.80
2023-01-25T12:15:46.020Z,28.27
2023-01-25T12:19:05.003Z,25.73
2023-01-25T12:21:56.191Z,27.53
2023-01-25T12:24:48.156Z,24.10
2023-01-25T12:27:37.859Z,24.27
2023-01-25T12:30:23.786Z,25.20
2023-01-25T12:33:14.420Z,58.67
2023-01-25T12:35:52.115Z,37.73
2023-01-25T12:38:32.170Z,32.17
2023-01-25T12:41:09.587Z,29.73
2023-01-25T12:43:48.360Z,28.40
2023-01-25T12:46:29.887Z,26.80
2023-01-25T12:49:10.896Z,25.70
2023-01-25T12:51:46.402Z,25.10
2023-01-25T12:54:27.334Z,20.67
2023-01-25T12:57:08.434Z,22.67
2023-01-25T12:59:51.263Z,23.57
2023-01-25T13:03:06.817Z,25.10
2023-01-25T13:05:51.212Z,25.70
2023-01-25T13:08:39.094Z,24.13
2023-01-25T13:11:19.411Z,27.27
2023-01-25T13:13:49.868Z,24.70
2023-01-25T13:16:39.026Z,28.77
2023-01-25T13:19:26.155Z,26.97
2023-01-25T13:22:01.229Z,27.07
2023-01-25T13:24:34.625Z,65.83
2023-01-25T13:27:26.106Z,25.97
2023-01-25T13:30:04.487Z,30.93
2023-01-25T13:33:05.734Z,25.90
2023-01-25T13:35:47.242Z,23.10
2023-01-25T13:38:43.792Z,25.13
2023-01-25T13:41:20.713Z,23.03
2023-01-25T13:44:23.036Z,25.60
2023-01-25T13:46:53.090Z,24.20
2023-01-25T13:49:33.826Z,26.90
2023-01-25T13:52:09.396Z,29.00
2023-01-25T13:54:50.809Z,25.67
2023-01-25T13:57:26.039Z,21.07
2023-01-25T14:00:11.614Z,27.20
2023-01-25T14:02:46.296Z,21.23
2023-01-25T14:05:23.772Z,24.37
2023-01-25T14:07:59.506Z,25.63
2023-01-25T14:10:32.558Z,33.10
2023-01-25T14:13:04.885Z,26.37
2023-01-25T14:15:41.185Z,23.67
2023-01-25T14:18:19.249Z,25.27
2023-01-25T14:20:53.686Z,27.80
2023-01-25T14:23:29.648Z,24.97
2023-01-25T14:26:02.895Z,23.10
2023-01-25T14:28:33.723Z,25.63
2023-01-25T14:31:06.131Z,27.40
2023-01-25T14:33:44.515Z,31.73
2023-01-25T14:36:25.190Z,26.53
2023-01-25T14:38:57.097Z,40.53
2023-01-25T14:41:35.509Z,23.87
2023-01-25T14:44:10.682Z,24.43
2023-01-25T14:46:43.616Z,24.13
2023-01-25T14:49:25.590Z,26.47
2023-01-25T14:52:10.993Z,20.83
2023-01-25T14:54:54.213Z,21.73
2023-01-25T14:57:40.139Z,24.30
2023-01-25T15:00:31.700Z,25.17
2023-01-25T15:03:06.793Z,23.10
2023-01-25T15:05:40.326Z,24.87
2023-01-25T15:08:31.048Z,28.63
2023-01-25T15:11:17.225Z,26.73
2023-01-25T15:13:50.724Z,30.37
2023-01-25T15:16:21.378Z,24.10
2023-01-25T15:18:54.429Z,27.97
2023-01-25T15:21:29.662Z,27.13
2023-01-25T15:24:05.070Z,28.83
2023-01-25T15:26:38.526Z,26.57
2023-01-25T15:29:20.928Z,27.33
2023-01-25T15:31:53.053Z,24.83
2023-01-25T15:34:30.363Z,26.50
2023-01-25T15:37:03.257Z,26.93
2023-01-25T15:39:35.290Z,27.97
2023-01-25T15:42:05.454Z,26.57
2023-01-25T15:44:38.127Z,27.27
2023-01-25T15:47:08.381Z,25.60
2023-01-25T15:49:39.666Z,24.03
2023-01-25T15:52:09.945Z,27.27
2023-01-25T15:54:48.584Z,24.63
2023-01-25T15:57:34.087Z,24.47
2023-01-25T16:00:08.997Z,27.67
2023-01-25T16:02:39.420Z,26.70
2023-01-25T16:05:10.365Z,23.73
2023-01-25T16:07:43.338Z,26.37
2023-01-25T16:10:24.567Z,22.30
2023-01-25T16:12:54.934Z,23.67
2023-01-25T16:15:27.627Z,26.27
2023-01-25T16:17:57.755Z,24.00
2023-01-25T16:20:27.845Z,28.70
2023-01-25T16:22:58.141Z,28.07
2023-01-25T16:25:28.318Z,24.17
2023-01-25T16:27:58.438Z,26.50
2023-01-25T16:30:34.145Z,27.27
2023-01-25T16:33:04.391Z,26.97
2023-01-25T16:35:34.539Z,27.10
2023-01-25T16:38:04.696Z,30.20
2023-01-25T16:40:39.839Z,28.00
2023-01-25T16:43:10.000Z,34.53
2023-01-25T16:45:42.690Z,27.07
2023-01-25T16:48:18.347Z,31.07
2023-01-25T16:50:48.436Z,34.07
2023-01-25T16:53:18.588Z,28.50
2023-01-25T16:55:49.608Z,28.90
2023-01-25T16:58:19.655Z,24.67
2023-01-25T17:00:52.371Z,35.93
2023-01-25T17:03:22.463Z,39.43
2023-01-25T17:05:52.581Z,37.50
2023-01-25T17:08:24.938Z,32.90
2023-01-25T17:10:57.496Z,33.83
2023-01-25T17:13:27.730Z,38.53
2023-01-25T17:16:02.438Z,29.30
2023-01-25T17:18:32.624Z,31.60
2023-01-25T17:21:05.879Z,29.40
2023-01-25T17:23:40.957Z,28.13
2023-01-25T17:26:14.453Z,29.80
2023-01-25T17:28:46.627Z,37.13
2023-01-25T17:31:22.804Z,30.43
2023-01-25T17:33:53.557Z,32.80
2023-01-25T17:36:23.970Z,35.40
2023-01-25T17:38:54.069Z,29.73
2023-01-25T17:41:25.360Z,27.83
2023-01-25T17:43:55.661Z,27.27
2023-01-25T17:46:33.140Z,21.30
2023-01-25T17:49:04.757Z,26.87
2023-01-25T17:51:36.606Z,27.83
2023-01-25T17:54:08.332Z,30.57
2023-01-25T17:56:39.663Z,26.80
2023-01-25T17:59:11.720Z,25.37
2023-01-25T18:01:45.421Z,26.07
2023-01-25T18:04:20.549Z,33.73
2023-01-25T18:06:50.775Z,26.30
2023-01-25T18:09:20.934Z,28.03
2023-01-25T18:11:51.078Z,26.03
2023-01-25T18:14:23.687Z,28.03
2023-01-25T18:16:58.760Z,25.37
2023-01-25T18:19:31.701Z,23.10
2023-01-25T18:22:01.829Z,24.93
2023-01-25T18:24:36.364Z,24.27
2023-01-25T18:27:13.568Z,28.77
2023-01-25T18:29:50.648Z,22.70
2023-01-25T18:32:23.691Z,27.00
2023-01-25T18:34:53.796Z,24.27
2023-01-25T18:37:29.323Z,20.50
2023-01-25T18:39:59.756Z,21.40
2023-01-25T18:42:31.253Z,23.63
2023-01-25T18:45:01.340Z,26.03
2023-01-25T18:47:36.631Z,24.17
2023-01-25T18:50:09.396Z,22.60
2023-01-25T18:52:39.766Z,20.30
2023-01-25T18:55:10.916Z,22.87
2023-01-25T18:57:41.728Z,23.10
2023-01-25T19:00:17.535Z,24.37
2023-01-25T19:02:50.380Z,26.80
2023-01-25T19:05:21.758Z,28.77
2023-01-25T19:07:52.016Z,28.70
2023-01-25T19:10:23.151Z,26.97
2023-01-25T19:12:53.749Z,28.27
2023-01-25T19:15:23.990Z,29.43
2023-01-25T19:17:56.727Z,25.50
2023-01-25T19:20:29.114Z,22.37
2023-01-25T19:22:59.291Z,26.77
2023-01-25T19:25:32.275Z,21.83
2023-01-25T19:28:04.079Z,25.50
2023-01-25T19:30:34.174Z,23.83
2023-01-25T19:33:06.980Z,22.57
2023-01-25T19:35:37.086Z,26.50
2023-01-25T19:38:07.602Z,23.77
2023-01-25T19:40:37.848Z,23.07
2023-01-25T19:43:08.188Z,23.10
2023-01-25T19:45:38.288Z,24.83
2023-01-25T19:48:11.003Z,21.47
2023-01-25T19:50:42.945Z,23.67
2023-01-25T19:53:13.132Z,18.90
2023-01-25T19:55:43.273Z,22.53
2023-01-25T19:58:13.413Z,21.37
2023-01-25T20:00:45.540Z,21.03
2023-01-25T20:03:18.291Z,24.53
2023-01-25T20:05:48.423Z,22.47
2023-01-25T20:08:18.584Z,21.93
2023-01-25T20:10:48.670Z,20.90
2023-01-25T20:13:19.004Z,25.73
2023-01-25T20:15:52.127Z,23.73
2023-01-25T20:18:26.062Z,22.03
2023-01-25T20:21:00.491Z,20.87
2023-01-25T20:23:34.419Z,22.60
2023-01-25T20:26:08.621Z,22.10
2023-01-25T20:28:40.489Z,24.30
2023-01-25T20:31:23.041Z,24.77
2023-01-25T20:34:00.904Z,23.77
2023-01-25T20:36:33.189Z,22.10
2023-01-25T20:39:03.986Z,22.63
2023-01-25T20:41:34.163Z,26.50
2023-01-25T20:44:08.644Z,21.80
2023-01-25T20:46:41.471Z,20.33
2023-01-25T20:49:19.395Z,22.90
2023-01-25T20:51:50.571Z,19.53
2023-01-25T20:54:21.784Z,15.97
2023-01-25T20:56:51.940Z,17.33
2023-01-25T20:59:22.097Z,17.07
2023-01-25T21:01:52.404Z,15.27
2023-01-25T21:04:25.404Z,19.30
2023-01-25T21:06:55.463Z,17.80
2023-01-25T21:09:28.329Z,17.33
2023-01-25T21:11:58.418Z,18.27
2023-01-25T21:14:28.622Z,29.40
2023-01-25T21:16:58.812Z,17.53
2023-01-25T21:19:34.093Z,16.37
2023-01-25T21:22:04.220Z,16.43
2023-01-25T21:24:34.749Z,18.23
2023-01-25T21:27:04.911Z,17.73
2023-01-25T21:29:34.968Z,17.10
2023-01-25T21:32:05.100Z,25.67
2023-01-25T21:34:37.908Z,17.67
2023-01-25T21:37:07.983Z,19.30
2023-01-25T21:39:38.107Z,19.67
2023-01-25T21:42:08.458Z,17.00
2023-01-25T21:44:50.965Z,17.20
2023-01-25T21:47:30.443Z,18.87
2023-01-25T21:50:16.090Z,15.63
2023-01-25T21:52:46.434Z,16.40
2023-01-25T21:55:16.709Z,16.03
2023-01-25T21:57:49.081Z,17.13
2023-01-25T22:00:22.083Z,16.67
2023-01-25T22:02:54.563Z,18.10
2023-01-25T22:05:27.326Z,16.77
2023-01-25T22:07:57.475Z,18.93
2023-01-25T22:10:27.695Z,18.53
2023-01-25T22:13:00.162Z,17.53
2023-01-25T22:15:30.263Z,17.20
2023-01-25T22:18:00.362Z,15.87
2023-01-25T22:20:33.016Z,19.43
2023-01-25T22:23:03.141Z,16.03
2023-01-25T22:25:35.803Z,12.87
2023-01-25T22:28:07.776Z,16.53
2023-01-25T22:30:38.984Z,17.17
2023-01-25T22:33:09.190Z,17.23
2023-01-25T22:35:41.825Z,19.73
2023-01-25T22:38:11.945Z,16.43
2023-01-25T22:40:42.014Z,28.20
2023-01-25T22:43:12.168Z,31.47
2023-01-25T22:45:42.238Z,24.17
2023-01-25T22:48:14.473Z,27.77
2023-01-25T22:50:47.206Z,22.83
2023-01-25T22:53:17.395Z,21.33
2023-01-25T22:55:47.485Z,22.63
2023-01-25T22:58:17.615Z,20.20
2023-01-25T23:00:48.901Z,23.60
2023-01-25T23:03:19.550Z,15.43
2023-01-25T23:05:52.649Z,13.73
2023-01-25T23:08:22.796Z,18.43
2023-01-25T23:10:52.880Z,15.83
2023-01-25T23:13:23.072Z,17.53
2023-01-25T23:15:53.165Z,19.57
2023-01-25T23:18:35.765Z,29.10
2023-01-25T23:21:09.425Z,16.20
2023-01-25T23:23:39.641Z,16.77
2023-01-25T23:26:12.349Z,20.10
2023-01-25T23:28:42.686Z,15.37
2023-01-25T23:31:21.547Z,16.33
2023-01-25T23:33:55.426Z,17.67
2023-01-25T23:36:31.562Z,16.30
2023-01-25T23:39:03.018Z,19.63
2023-01-25T23:41:34.577Z,22.87
2023-01-25T23:44:04.807Z,21.43
2023-01-25T23:46:34.904Z,17.13
2023-01-25T23:49:05.062Z,22.00
2023-01-25T23:51:37.773Z,19.80
2023-01-25T23:54:08.188Z,24.23
2023-01-25T23:56:38.215Z,27.57
2023-01-25T23:59:08.376Z,29.07
